Time;durP1;ratioP1;P1;durP2;ratioP2;P2;SDS_P1;SDS_P2;PMS_P1;PMS_P2;Temp;Humidity;BMP_temperature;BMP_pressure;BME280_temperature;BME280_humidity;BME280_pressure;Samples;Min_cycle;Max_cycle;Signal;HPM_P1;HPM_P2
2024/01/12 00:02:22;;;;;;;10.13;6.40;;;;;;;-2.69;100.00;103152.78;4988116;28;20528;-44
2024/01/12 00:04:47;;;;;;;9.18;6.68;;;;;;;-2.70;100.00;103156.25;4985888;28;20818;-46
2024/01/12 00:07:13;;;;;;;7.85;6.38;;;;;;;-2.69;100.00;103150.16;4988875;28;20274;-43
2024/01/12 00:09:39;;;;;;;9.60;7.13;;;;;;;-2.72;100.00;103145.66;4984339;28;20196;-43
2024/01/12 00:12:04;;;;;;;9.60;6.65;;;;;;;-2.72;100.00;103155.25;4986333;28;20560;-48
2024/01/12 00:14:30;;;;;;;8.65;6.65;;;;;;;-2.70;100.00;103148.38;4985097;28;20491;-45
2024/01/12 00:16:55;;;;;;;8.70;6.97;;;;;;;-2.71;100.00;103149.19;4985162;28;20169;-44
2024/01/12 00:19:21;;;;;;;9.88;7.63;;;;;;;-2.85;100.00;103158.03;4985417;28;20321;-45
2024/01/12 00:21:47;;;;;;;13.52;7.75;;;;;;;-2.90;100.00;103147.28;4980767;28;20177;-43
2024/01/12 00:24:12;;;;;;;10.85;7.50;;;;;;;-2.83;100.00;103156.41;4976696;28;20208;-47
2024/01/12 00:26:38;;;;;;;10.02;7.18;;;;;;;-2.85;100.00;103150.16;4989472;28;20221;-47
2024/01/12 00:29:03;;;;;;;11.45;7.30;;;;;;;-2.81;100.00;103141.66;4989532;28;20777;-46
2024/01/12 00:31:29;;;;;;;9.02;7.15;;;;;;;-2.84;100.00;103144.09;4988276;28;20189;-44
2024/01/12 00:33:54;;;;;;;8.10;6.80;;;;;;;-2.83;100.00;103145.91;4994411;28;20189;-45
2024/01/12 00:36:20;;;;;;;8.55;6.72;;;;;;;-2.85;100.00;103140.56;4982580;28;20178;-48
2024/01/12 00:38:45;;;;;;;8.32;6.65;;;;;;;-2.86;100.00;103140.47;4984528;28;20189;-45
2024/01/12 00:41:11;;;;;;;9.45;7.28;;;;;;;-2.97;100.00;103142.53;4986871;28;20656;-46
2024/01/12 00:43:36;;;;;;;10.20;7.50;;;;;;;-2.95;100.00;103136.56;4986147;28;20212;-46
2024/01/12 00:46:02;;;;;;;10.77;7.28;;;;;;;-3.20;100.00;103149.13;4990773;28;20695;-43
2024/01/12 00:48:27;;;;;;;9.05;6.78;;;;;;;-3.15;100.00;103137.16;4989084;28;20197;-45
2024/01/12 00:50:53;;;;;;;8.90;7.10;;;;;;;-3.23;100.00;103147.25;4990094;28;20632;-47
2024/01/12 00:53:19;;;;;;;9.00;6.75;;;;;;;-3.16;100.00;103143.25;4985384;28;20181;-42
2024/01/12 00:55:44;;;;;;;8.73;6.80;;;;;;;-3.14;100.00;103137.25;4995028;28;20197;-49
2024/01/12 00:58:09;;;;;;;8.88;7.00;;;;;;;-3.09;100.00;103134.88;4983658;28;20181;-44
2024/01/12 01:00:35;;;;;;;9.73;7.20;;;;;;;-3.21;100.00;103123.75;4987266;28;20185;-43
2024/01/12 01:03:06;;;;;;;9.95;7.35;;;;;;;-3.12;100.00;103119.91;4985982;28;20544;-45
2024/01/12 01:05:31;;;;;;;10.70;7.30;;;;;;;-3.14;100.00;103120.63;4987596;28;20190;-44
2024/01/12 01:07:57;;;;;;;10.13;7.45;;;;;;;-3.10;100.00;103122.63;4988968;28;20228;-44
2024/01/12 01:10:23;;;;;;;9.73;7.82;;;;;;;-3.14;100.00;103128.50;4983266;28;20285;-45
2024/01/12 01:12:48;;;;;;;10.95;8.45;;;;;;;-3.21;100.00;103119.41;4981500;28;20185;-44
2024/01/12 01:15:14;;;;;;;10.63;8.57;;;;;;;-3.23;100.00;103130.63;4988851;28;20304;-48
2024/01/12 01:17:41;;;;;;;12.75;8.02;;;;;;;-3.21;100.00;103115.88;4983700;28;20259;-43
2024/01/12 01:20:07;;;;;;;11.18;8.95;;;;;;;-3.26;100.00;103128.72;4984991;28;20244;-45
2024/01/12 01:22:34;;;;;;;9.60;7.22;;;;;;;-3.24;100.00;103124.44;4987638;28;20189;-43
2024/01/12 01:25:01;;;;;;;9.70;8.05;;;;;;;-3.30;100.00;103126.75;4988052;28;20200;-45
2024/01/12 01:27:26;;;;;;;11.95;8.05;;;;;;;-3.26;100.00;103122.56;4990408;28;20189;-45
2024/01/12 01:29:51;;;;;;;10.02;8.13;;;;;;;-3.30;100.00;103124.16;4983195;28;20715;-44
2024/01/12 01:32:17;;;;;;;9.98;8.18;;;;;;;-3.27;100.00;103121.69;4988866;28;20181;-47
2024/01/12 01:34:43;;;;;;;10.13;7.95;;;;;;;-3.22;100.00;103129.78;4985100;28;20218;-45
2024/01/12 01:37:08;;;;;;;11.40;8.55;;;;;;;-3.27;100.00;103115.53;4984809;28;20228;-46
2024/01/12 01:39:34;;;;;;;10.93;8.20;;;;;;;-3.25;100.00;103116.53;4982835;28;20195;-45
2024/01/12 01:42:01;;;;;;;9.02;7.47;;;;;;;-3.22;100.00;103109.72;4983489;28;20262;-45
2024/01/12 01:44:27;;;;;;;11.40;8.75;;;;;;;-3.26;100.00;103104.22;4984790;28;20696;-44
2024/01/12 01:46:54;;;;;;;10.13;8.25;;;;;;;-3.39;100.00;103106.19;4987971;28;20193;-42
2024/01/12 01:49:21;;;;;;;11.07;8.55;;;;;;;-3.46;100.00;103106.63;4986010;28;20321;-45
2024/01/12 01:51:47;;;;;;;10.68;7.55;;;;;;;-3.40;100.00;103099.13;4986209;28;20265;-43
2024/01/12 01:54:13;;;;;;;12.07;7.53;;;;;;;-3.36;100.00;103084.47;4988794;28;20201;-46
2024/01/12 01:56:40;;;;;;;10.13;7.53;;;;;;;-3.34;100.00;103090.72;4981028;28;20190;-43
2024/01/12 01:59:06;;;;;;;11.05;8.27;;;;;;;-3.39;100.00;103069.50;4985913;28;20169;-45
2024/01/12 02:01:32;;;;;;;11.13;7.75;;;;;;;-3.36;100.00;103074.00;4988794;28;20189;-44
2024/01/12 02:03:58;;;;;;;12.63;8.57;;;;;;;-3.44;100.00;103065.69;4987967;28;20197;-42
2024/01/12 02:06:25;;;;;;;12.82;8.90;;;;;;;-3.56;100.00;103055.44;4984238;28;20260;-44
2024/01/12 02:08:50;;;;;;;11.95;8.02;;;;;;;-3.48;100.00;103068.06;4986969;28;20802;-45
2024/01/12 02:11:16;;;;;;;12.45;8.05;;;;;;;-3.48;100.00;103054.97;4986891;28;20272;-43
2024/01/12 02:13:41;;;;;;;12.15;7.95;;;;;;;-3.47;100.00;103052.44;4984094;28;20272;-46
2024/01/12 02:16:07;;;;;;;9.70;7.40;;;;;;;-3.41;100.00;103054.47;4985502;28;20201;-44
2024/01/12 02:18:32;;;;;;;13.00;8.35;;;;;;;-3.52;100.00;103057.44;4985882;28;20193;-44
2024/01/12 02:20:58;;;;;;;11.05;8.55;;;;;;;-3.48;100.00;103052.34;4987962;28;20166;-46
2024/01/12 02:23:23;;;;;;;10.40;7.57;;;;;;;-3.43;100.00;103049.16;4985049;28;20555;-46
2024/01/12 02:25:49;;;;;;;10.80;8.38;;;;;;;-3.49;100.00;103050.56;4983715;28;20220;-44
2024/01/12 02:28:16;;;;;;;10.77;8.00;;;;;;;-3.48;100.00;103034.91;4985051;28;20715;-42
2024/01/12 02:30:42;;;;;;;9.75;7.40;;;;;;;-3.56;100.00;103033.59;4987076;28;20211;-42
2024/01/12 02:33:08;;;;;;;12.45;8.18;;;;;;;-3.64;100.00;103032.25;4987103;28;20560;-42
2024/01/12 02:35:34;;;;;;;9.70;7.95;;;;;;;-3.60;100.00;103032.50;4984218;28;20295;-49
2024/01/12 02:38:00;;;;;;;11.38;8.07;;;;;;;-3.66;100.00;103026.03;4983999;28;20314;-42
2024/01/12 02:40:25;;;;;;;9.85;8.15;;;;;;;-3.63;100.00;103031.44;4980475;28;20761;-44
2024/01/12 02:42:51;;;;;;;12.43;7.80;;;;;;;-3.62;100.00;103034.16;4982413;28;20185;-44
2024/01/12 02:45:16;;;;;;;13.05;7.88;;;;;;;-3.69;100.00;103033.75;4982396;28;20228;-43
2024/01/12 02:47:43;;;;;;;12.05;8.50;;;;;;;-3.67;100.00;103029.44;4986723;28;20178;-48
2024/01/12 02:50:09;;;;;;;12.45;8.05;;;;;;;-3.75;100.00;103031.66;4986282;28;20185;-43
2024/01/12 02:52:35;;;;;;;9.95;8.13;;;;;;;-3.80;100.00;103018.31;4987600;28;20243;-43
2024/01/12 02:55:05;;;;;;;11.07;8.57;;;;;;;-3.80;100.00;103023.56;4985133;28;20208;-47
2024/01/12 02:57:33;;;;;;;10.18;7.28;;;;;;;-3.76;100.00;103025.53;4981732;28;20269;-44
2024/01/12 02:59:59;;;;;;;10.10;7.50;;;;;;;-3.83;100.00;103018.13;4981102;28;20178;-45
2024/01/12 03:02:25;;;;;;;10.50;7.82;;;;;;;-3.79;100.00;103019.22;4987207;28;20228;-46
2024/01/12 03:04:50;;;;;;;9.95;7.72;;;;;;;-3.78;100.00;103018.41;4983581;28;20213;-42
2024/01/12 03:07:16;;;;;;;9.25;7.35;;;;;;;-3.80;100.00;103015.69;4982950;28;20292;-44
2024/01/12 03:09:41;;;;;;;11.73;7.32;;;;;;;-3.75;100.00;103019.47;4983064;28;20213;-44
2024/01/12 03:12:07;;;;;;;10.23;7.32;;;;;;;-3.82;100.00;103013.81;4984129;28;20665;-46
2024/01/12 03:14:32;;;;;;;11.38;7.55;;;;;;;-3.85;100.00;102998.81;4981227;28;20301;-46
2024/01/12 03:16:58;;;;;;;9.00;7.80;;;;;;;-3.86;100.00;102993.50;4983865;28;20188;-46
2024/01/12 03:19:23;;;;;;;11.98;8.02;;;;;;;-3.98;100.00;102997.25;4983782;28;20693;-42
2024/01/12 03:21:49;;;;;;;10.82;7.95;;;;;;;-3.95;100.00;102988.66;4989897;28;20333;-44
2024/01/12 03:24:14;;;;;;;9.90;7.40;;;;;;;-3.95;100.00;102986.03;4985839;28;20209;-43
2024/01/12 03:26:40;;;;;;;10.35;7.40;;;;;;;-3.93;100.00;102973.94;4982669;28;20276;-44
2024/01/12 03:29:05;;;;;;;11.85;7.93;;;;;;;-3.92;100.00;102956.50;4987770;28;20213;-41
2024/01/12 03:31:31;;;;;;;10.73;7.47;;;;;;;-4.00;100.00;102956.06;4985399;28;20710;-43
2024/01/12 03:33:57;;;;;;;11.10;8.18;;;;;;;-4.06;100.00;102961.88;4980620;28;20206;-41
2024/01/12 03:36:23;;;;;;;12.50;7.40;;;;;;;-4.06;100.00;102956.63;4981768;28;20567;-42
2024/01/12 03:38:49;;;;;;;11.93;8.27;;;;;;;-4.09;100.00;102966.03;4987395;28;20554;-41
2024/01/12 03:41:14;;;;;;;10.45;7.47;;;;;;;-4.07;100.00;102972.25;4980509;28;20178;-43
2024/01/12 03:43:40;;;;;;;14.02;7.22;;;;;;;-4.08;100.00;102967.84;4984312;28;20194;-43
2024/01/12 03:46:06;;;;;;;10.95;7.95;;;;;;;-4.16;100.00;102960.44;4986971;28;20193;-42
2024/01/12 03:48:32;;;;;;;11.38;7.85;;;;;;;-4.18;100.00;102958.56;4982798;28;20213;-42
2024/01/12 03:50:57;;;;;;;10.82;7.70;;;;;;;-4.07;100.00;102946.06;4984275;28;20185;-42
2024/01/12 03:53:23;;;;;;;10.10;7.55;;;;;;;-4.12;100.00;102953.66;4989046;28;20316;-41
2024/01/12 03:55:48;;;;;;;12.50;7.63;;;;;;;-4.14;100.00;102950.06;4982369;28;20208;-43
2024/01/12 03:58:14;;;;;;;8.90;7.57;;;;;;;-4.09;100.00;102938.13;4985075;28;20652;-43
2024/01/12 04:00:40;;;;;;;9.98;7.88;;;;;;;-4.06;100.00;102943.53;4987638;28;20192;-43
2024/01/12 04:03:05;;;;;;;10.35;7.60;;;;;;;-4.03;100.00;102941.09;4981470;28;20189;-42
2024/01/12 04:05:31;;;;;;;11.50;7.15;;;;;;;-4.01;100.00;102943.78;4982957;28;20209;-43
2024/01/12 04:07:56;;;;;;;10.10;8.00;;;;;;;-4.07;100.00;102932.97;4982722;28;20267;-43
2024/01/12 04:10:22;;;;;;;10.85;7.70;;;;;;;-4.09;100.00;102932.88;4985933;28;20212;-43
2024/01/12 04:12:47;;;;;;;11.43;8.45;;;;;;;-4.24;100.00;102930.34;4984318;28;20675;-44
2024/01/12 04:15:13;;;;;;;9.27;7.53;;;;;;;-4.18;100.00;102930.66;4982056;28;20236;-43
2024/01/12 04:17:38;;;;;;;10.23;7.90;;;;;;;-4.11;100.00;102920.53;4987519;28;20196;-41
2024/01/12 04:20:04;;;;;;;11.50;8.10;;;;;;;-4.25;100.00;102918.06;4985765;28;20182;-42
2024/01/12 04:22:30;;;;;;;10.57;8.45;;;;;;;-4.21;100.00;102925.25;4985180;28;20189;-43
2024/01/12 04:24:56;;;;;;;13.23;8.27;;;;;;;-4.36;100.00;102914.84;4984117;28;20721;-42
2024/01/12 04:27:21;;;;;;;10.35;8.15;;;;;;;-4.26;100.00;102910.13;4982001;28;20244;-43
2024/01/12 04:29:47;;;;;;;12.88;7.85;;;;;;;-4.26;100.00;102903.19;4982890;28;20225;-42
2024/01/12 04:32:12;;;;;;;9.90;7.80;;;;;;;-4.19;100.00;102897.47;4983970;28;20198;-42
2024/01/12 04:34:38;;;;;;;12.88;8.68;;;;;;;-4.16;100.00;102907.19;4988079;28;20667;-42
2024/01/12 04:37:04;;;;;;;14.15;8.38;;;;;;;-4.10;100.00;102911.88;4985855;28;20319;-42
2024/01/12 04:39:29;;;;;;;12.65;8.88;;;;;;;-4.20;100.00;102899.97;4981846;28;20653;-42
2024/01/12 04:41:55;;;;;;;10.30;8.15;;;;;;;-4.18;100.00;102895.75;4983968;28;20183;-42
2024/01/12 04:44:21;;;;;;;12.15;9.45;;;;;;;-4.25;100.00;102901.44;4986054;28;20205;-42
2024/01/12 04:46:47;;;;;;;12.20;9.50;;;;;;;-4.31;100.00;102891.53;4982411;28;20235;-42
2024/01/12 04:49:12;;;;;;;12.40;9.20;;;;;;;-4.30;100.00;102897.69;4984840;28;20214;-43
2024/01/12 04:51:38;;;;;;;12.52;8.50;;;;;;;-4.25;100.00;102899.72;4984647;28;20625;-43
2024/01/12 04:54:03;;;;;;;11.63;8.63;;;;;;;-4.23;100.00;102900.72;4986475;28;20753;-42
2024/01/12 04:56:29;;;;;;;12.13;9.23;;;;;;;-4.27;100.00;102905.69;4982705;28;20186;-42
2024/01/12 04:58:54;;;;;;;12.77;8.65;;;;;;;-4.34;100.00;102901.84;4983684;28;20182;-42
2024/01/12 05:01:21;;;;;;;12.13;9.05;;;;;;;-4.41;100.00;102894.47;4982538;28;20228;-42
2024/01/12 05:03:46;;;;;;;15.00;8.80;;;;;;;-4.40;100.00;102898.88;4987970;28;20181;-43
2024/01/12 05:06:12;;;;;;;14.95;9.65;;;;;;;-4.36;100.00;102887.78;4981554;28;20186;-44
2024/01/12 05:08:38;;;;;;;13.63;8.73;;;;;;;-4.26;100.00;102887.47;4984444;28;20254;-43
2024/01/12 05:11:03;;;;;;;12.68;8.38;;;;;;;-4.19;100.00;102902.69;4984352;28;20267;-44
2024/01/12 05:13:29;;;;;;;11.88;8.93;;;;;;;-4.27;100.00;102893.50;4982549;28;20186;-42
2024/01/12 05:15:55;;;;;;;12.05;9.00;;;;;;;-4.37;100.00;102896.44;4982252;28;20202;-42
2024/01/12 05:18:21;;;;;;;13.55;9.32;;;;;;;-4.35;100.00;102893.09;5002943;23;20591;-43
2024/01/12 05:20:47;;;;;;;11.75;8.80;;;;;;;-4.28;100.00;102896.97;4931006;29;20218;-43
2024/01/12 05:23:12;;;;;;;12.15;8.02;;;;;;;-4.23;100.00;102899.81;4931057;29;20192;-43
2024/01/12 05:25:38;;;;;;;11.13;8.70;;;;;;;-4.29;100.00;102902.09;4931459;29;20302;-43
2024/01/12 05:28:04;;;;;;;10.55;8.98;;;;;;;-4.22;100.00;102901.63;4933135;29;20195;-43
2024/01/12 05:30:30;;;;;;;13.80;8.80;;;;;;;-4.31;100.00;102903.72;4933008;29;20710;-43
2024/01/12 05:32:56;;;;;;;11.15;8.63;;;;;;;-4.26;100.00;102908.41;4931795;29;20198;-43
2024/01/12 05:35:21;;;;;;;12.68;9.00;;;;;;;-4.28;100.00;102898.69;4932726;29;20605;-42
2024/01/12 05:37:47;;;;;;;14.55;9.50;;;;;;;-4.27;100.00;102905.69;4932999;29;20187;-43
2024/01/12 05:40:12;;;;;;;11.25;9.13;;;;;;;-4.32;100.00;102894.09;4931304;29;20241;-42
2024/01/12 05:42:38;;;;;;;12.55;9.18;;;;;;;-4.26;100.00;102903.19;4933074;29;20203;-41
2024/01/12 05:45:04;;;;;;;13.57;8.85;;;;;;;-4.26;100.00;102904.91;4931919;29;20203;-42
2024/01/12 05:47:29;;;;;;;13.85;9.32;;;;;;;-4.23;100.00;102899.81;4932988;29;20609;-42
2024/01/12 05:49:55;;;;;;;14.27;8.57;;;;;;;-4.18;100.00;102886.16;4931885;29;20227;-42
2024/01/12 05:52:20;;;;;;;11.52;8.23;;;;;;;-3.95;100.00;102882.19;4933113;29;20210;-43
2024/01/12 05:54:46;;;;;;;11.70;7.93;;;;;;;-3.76;100.00;102886.72;4932700;29;20552;-44
2024/01/12 05:57:11;;;;;;;14.65;9.63;;;;;;;-3.45;100.00;102887.44;4933155;29;20199;-43
2024/01/12 05:59:37;;;;;;;13.27;9.13;;;;;;;-3.37;100.00;102888.72;4932344;29;20274;-44
2024/01/12 06:02:03;;;;;;;14.43;9.88;;;;;;;-3.23;100.00;102879.84;4930066;29;20625;-42
2024/01/12 06:04:28;;;;;;;14.00;9.80;;;;;;;-3.34;100.00;102878.41;4932223;29;20211;-42
2024/01/12 06:06:54;;;;;;;15.02;9.68;;;;;;;-3.35;100.00;102893.22;4929759;29;20196;-43
2024/01/12 06:09:20;;;;;;;15.27;9.98;;;;;;;-3.25;100.00;102898.97;4932175;29;20226;-44
2024/01/12 06:11:45;;;;;;;12.18;9.27;;;;;;;-3.10;100.00;102878.78;4931357;29;20258;-43
2024/01/12 06:14:15;;;;;;;14.27;10.27;;;;;;;-3.13;100.00;102862.88;4932481;29;20214;-44
2024/01/12 06:16:40;;;;;;;13.35;8.88;;;;;;;-3.17;100.00;102872.31;4932000;29;20544;-42
2024/01/12 06:19:05;;;;;;;15.85;10.45;;;;;;;-3.13;100.00;102863.78;4931933;29;20274;-41
2024/01/12 06:21:31;;;;;;;15.48;10.93;;;;;;;-3.10;100.00;102860.41;4932583;29;20236;-43
2024/01/12 06:23:57;;;;;;;16.35;9.60;;;;;;;-3.10;100.00;102857.78;4932287;29;20215;-43
2024/01/12 06:26:22;;;;;;;16.98;10.82;;;;;;;-2.98;100.00;102884.59;4932314;29;20276;-43
2024/01/12 06:28:47;;;;;;;15.60;10.10;;;;;;;-2.99;100.00;102879.31;4931486;29;20211;-42
2024/01/12 06:31:13;;;;;;;14.70;11.00;;;;;;;-3.08;100.00;102881.44;4931721;29;20199;-43
2024/01/12 06:33:39;;;;;;;14.10;10.75;;;;;;;-3.02;100.00;102885.28;4930920;29;20763;-43
2024/01/12 06:36:05;;;;;;;13.57;10.68;;;;;;;-2.98;100.00;102875.84;4932495;29;20631;-43
2024/01/12 06:38:31;;;;;;;14.65;10.77;;;;;;;-3.00;100.00;102869.63;4932063;29;20646;-42
2024/01/12 06:40:57;;;;;;;18.50;11.40;;;;;;;-2.96;100.00;102869.84;4931839;29;20320;-42
2024/01/12 06:43:22;;;;;;;19.63;11.73;;;;;;;-2.85;100.00;102866.88;4931903;29;20179;-43
2024/01/12 06:45:47;;;;;;;17.02;10.95;;;;;;;-2.84;100.00;102855.53;4930384;29;20219;-43
2024/01/12 06:48:13;;;;;;;22.85;12.07;;;;;;;-2.79;100.00;102852.34;4930477;29;20648;-44
2024/01/12 06:50:38;;;;;;;21.40;11.23;;;;;;;-2.71;100.00;102847.47;4930016;29;20676;-43
2024/01/12 06:53:08;;;;;;;38.75;11.15;;;;;;;-2.68;100.00;102841.47;4931353;29;20619;-43
2024/01/12 06:55:37;;;;;;;16.55;10.13;;;;;;;-2.67;100.00;102838.91;4913758;29;20218;-43
2024/01/12 06:58:03;;;;;;;39.72;10.38;;;;;;;-2.63;100.00;102830.34;4929329;29;20670;-42
2024/01/12 07:00:29;;;;;;;26.75;10.65;;;;;;;-2.59;100.00;102845.44;4929945;29;20215;-44
2024/01/12 07:02:55;;;;;;;21.63;9.40;;;;;;;-2.57;100.00;102825.41;4930670;29;20211;-42
2024/01/12 07:05:20;;;;;;;26.70;9.75;;;;;;;-2.52;100.00;102818.66;4930887;29;20284;-43
2024/01/12 07:07:46;;;;;;;22.30;10.65;;;;;;;-2.47;100.00;102831.09;4931066;29;20199;-45
2024/01/12 07:10:12;;;;;;;24.67;10.70;;;;;;;-2.45;100.00;102824.19;4928488;29;20321;-42
2024/01/12 07:12:38;;;;;;;36.13;10.60;;;;;;;-2.46;100.00;102823.31;4929102;29;20682;-41
2024/01/12 07:15:05;;;;;;;16.73;9.88;;;;;;;-2.39;100.00;102824.47;4929027;29;20238;-43
2024/01/12 07:17:31;;;;;;;22.50;10.00;;;;;;;-2.41;100.00;102826.13;4930248;29;20199;-44
2024/01/12 07:19:56;;;;;;;30.08;10.48;;;;;;;-2.36;100.00;102838.66;4930471;29;20522;-41
2024/01/12 07:22:22;;;;;;;38.35;9.20;;;;;;;-2.33;100.00;102830.03;4931171;29;20202;-43
2024/01/12 07:24:48;;;;;;;42.55;8.45;;;;;;;-2.34;100.00;102825.59;4929221;29;20210;-42
2024/01/12 07:27:14;;;;;;;25.10;8.60;;;;;;;-2.33;100.00;102823.03;4929185;29;20206;-44
2024/01/12 07:29:40;;;;;;;24.10;7.78;;;;;;;-2.28;100.00;102810.13;4930356;29;20608;-42
2024/01/12 07:32:05;;;;;;;17.83;8.38;;;;;;;-2.24;100.00;102791.06;4929643;29;20202;-43
2024/01/12 07:34:31;;;;;;;22.40;8.23;;;;;;;-2.19;100.00;102783.41;4930554;29;20674;-44
2024/01/12 07:36:57;;;;;;;16.38;8.35;;;;;;;-2.12;100.00;102781.13;4929487;29;20186;-42
2024/01/12 07:39:24;;;;;;;16.75;8.18;;;;;;;-2.05;100.00;102778.78;4913689;29;20598;-43
2024/01/12 07:41:49;;;;;;;24.98;9.30;;;;;;;-2.00;100.00;102772.00;4929712;29;20191;-42
2024/01/12 07:44:16;;;;;;;19.50;9.18;;;;;;;-1.96;100.00;102760.81;4929561;29;20286;-41
2024/01/12 07:46:41;;;;;;;19.00;8.65;;;;;;;-1.97;100.00;102754.66;4929721;29;20270;-41
2024/01/12 07:49:07;;;;;;;19.48;8.82;;;;;;;-1.96;100.00;102752.94;4930043;29;20202;-44
2024/01/12 07:51:33;;;;;;;20.52;9.30;;;;;;;-1.93;100.00;102748.69;4923078;29;20180;-43
2024/01/12 07:53:58;;;;;;;22.92;9.57;;;;;;;-1.85;100.00;102766.53;4929930;29;20614;-42
2024/01/12 07:56:24;;;;;;;23.45;9.98;;;;;;;-1.81;100.00;102758.84;4930089;29;20269;-43
2024/01/12 07:58:49;;;;;;;23.55;12.63;;;;;;;-1.73;100.00;102770.59;4930270;29;20167;-44
2024/01/12 08:01:18;;;;;;;32.20;16.50;;;;;;;-1.70;100.00;102765.47;4930222;29;20295;-43
2024/01/12 08:03:44;;;;;;;30.63;17.60;;;;;;;-1.60;100.00;102758.88;4929549;29;20206;-42
2024/01/12 08:06:10;;;;;;;29.10;15.18;;;;;;;-1.57;100.00;102748.50;4930473;29;20312;-42
2024/01/12 08:08:36;;;;;;;31.63;14.85;;;;;;;-1.52;100.00;102746.06;4930384;29;20242;-41
2024/01/12 08:11:02;;;;;;;34.13;14.20;;;;;;;-1.42;100.00;102743.00;4912888;29;20210;-43
2024/01/12 08:13:28;;;;;;;22.17;12.20;;;;;;;-1.40;100.00;102737.78;4929224;29;20188;-43
2024/01/12 08:15:53;;;;;;;19.55;10.15;;;;;;;-1.35;100.00;102733.63;4925832;29;20585;-42
2024/01/12 08:18:19;;;;;;;22.58;10.45;;;;;;;-1.28;100.00;102741.81;4930165;29;20263;-42
2024/01/12 08:20:45;;;;;;;22.85;9.88;;;;;;;-1.22;100.00;102756.03;4929993;29;20206;-46
2024/01/12 08:23:11;;;;;;;21.95;10.73;;;;;;;-1.17;100.00;102758.03;4930129;29;20183;-43
2024/01/12 08:25:36;;;;;;;21.23;10.60;;;;;;;-1.15;100.00;102758.13;4930133;29;20728;-43
2024/01/12 08:28:03;;;;;;;22.67;9.07;;;;;;;-1.03;100.00;102771.75;4930192;29;20274;-43
2024/01/12 08:30:28;;;;;;;26.73;9.45;;;;;;;-1.01;100.00;102772.72;4929409;29;20183;-44
2024/01/12 08:32:54;;;;;;;22.27;9.52;;;;;;;-0.97;100.00;102766.75;4930469;29;20721;-44
2024/01/12 08:35:19;;;;;;;23.05;8.82;;;;;;;-0.90;100.00;102781.94;4930309;29;20282;-44
2024/01/12 08:37:45;;;;;;;18.45;8.95;;;;;;;-0.90;100.00;102792.44;4930797;29;20276;-43
2024/01/12 08:40:11;;;;;;;24.60;9.25;;;;;;;-0.90;100.00;102808.25;4930365;29;20187;-43
2024/01/12 08:42:39;;;;;;;20.88;9.20;;;;;;;-0.86;100.00;102807.53;4929721;29;20283;-41
2024/01/12 08:45:08;;;;;;;27.17;9.27;;;;;;;-0.88;100.00;102801.31;4928647;29;20316;-43
2024/01/12 08:47:34;;;;;;;24.85;9.50;;;;;;;-0.82;100.00;102799.78;4930629;29;20193;-41
2024/01/12 08:49:59;;;;;;;23.42;10.00;;;;;;;-0.78;100.00;102791.19;4929971;29;20288;-43
2024/01/12 08:52:25;;;;;;;23.08;9.38;;;;;;;-0.80;100.00;102788.47;4931608;29;20668;-41
2024/01/12 08:54:50;;;;;;;22.33;9.32;;;;;;;-0.78;100.00;102778.03;4929270;29;20226;-41
2024/01/12 08:57:16;;;;;;;23.80;8.82;;;;;;;-0.75;100.00;102778.13;4929955;29;20331;-43
2024/01/12 08:59:42;;;;;;;27.33;9.73;;;;;;;-0.74;100.00;102772.94;4932719;29;20539;-45
2024/01/12 09:02:07;;;;;;;25.83;8.73;;;;;;;-0.69;100.00;102771.38;4931886;29;20495;-43
2024/01/12 09:04:34;;;;;;;22.65;7.95;;;;;;;-0.66;100.00;102755.72;4933207;29;21182;-43
2024/01/12 09:07:00;;;;;;;25.67;9.23;;;;;;;-0.68;100.00;102756.47;4931750;29;20268;-45
2024/01/12 09:09:25;;;;;;;27.15;9.15;;;;;;;-0.63;100.00;102752.28;4916012;29;20542;-42
2024/01/12 09:11:51;;;;;;;24.55;8.77;;;;;;;-0.60;100.00;102748.88;4931215;29;20272;-42
2024/01/12 09:14:17;;;;;;;22.92;9.35;;;;;;;-0.57;100.00;102746.34;4933688;29;20190;-43
2024/01/12 09:16:43;;;;;;;29.55;11.00;;;;;;;-0.58;100.00;102747.22;4933752;29;20187;-43
2024/01/12 09:19:08;;;;;;;23.33;11.60;;;;;;;-0.59;100.00;102743.69;4931415;29;20209;-44
2024/01/12 09:21:34;;;;;;;24.92;11.70;;;;;;;-0.64;100.00;102746.09;4933424;29;20229;-43
2024/01/12 09:23:59;;;;;;;21.30;11.13;;;;;;;-0.61;100.00;102748.00;4934319;29;20357;-43
2024/01/12 09:26:25;;;;;;;28.10;11.82;;;;;;;-0.57;100.00;102747.25;4931227;29;20679;-43
2024/01/12 09:28:50;;;;;;;28.08;12.75;;;;;;;-0.60;100.00;102746.25;4925468;29;20314;-43
2024/01/12 09:31:16;;;;;;;31.40;12.70;;;;;;;-0.59;100.00;102755.91;4930844;29;20211;-43
2024/01/12 09:33:41;;;;;;;26.65;13.10;;;;;;;-0.54;100.00;102752.66;4930549;29;20246;-44
2024/01/12 09:36:07;;;;;;;27.30;13.75;;;;;;;-0.55;100.00;102745.56;4929227;29;20179;-42
2024/01/12 09:38:33;;;;;;;22.80;13.35;;;;;;;-0.54;100.00;102747.38;4930532;29;20179;-42
2024/01/12 09:41:01;;;;;;;32.38;14.60;;;;;;;-0.30;100.00;102736.88;4931927;29;20183;-42
2024/01/12 09:43:31;;;;;;;31.33;13.07;;;;;;;-0.49;100.00;102740.53;4932921;29;20171;-42
2024/01/12 09:46:04;;;;;;;27.70;13.48;;;;;;;-0.51;100.00;102747.47;4930729;29;20207;-43
2024/01/12 09:48:30;;;;;;;28.52;12.68;;;;;;;-0.46;100.00;102747.66;4930431;29;20625;-44
2024/01/12 09:50:56;;;;;;;28.20;13.52;;;;;;;-0.50;100.00;102735.25;4932481;29;20254;-42
2024/01/12 09:53:22;;;;;;;28.30;13.40;;;;;;;-0.47;100.00;102740.63;4932983;29;20167;-43
2024/01/12 09:55:49;;;;;;;33.28;13.65;;;;;;;-0.51;100.00;102739.59;4932810;29;20297;-43
2024/01/12 09:58:16;;;;;;;29.45;13.00;;;;;;;-0.48;100.00;102738.78;4932694;29;20563;-41
2024/01/12 10:00:44;;;;;;;28.52;12.38;;;;;;;-0.46;100.00;102738.03;4933295;29;20270;-43
2024/01/12 10:03:10;;;;;;;28.60;13.98;;;;;;;-0.46;100.00;102731.84;4932915;29;20547;-44
2024/01/12 10:05:37;;;;;;;31.42;13.80;;;;;;;-0.47;100.00;102725.69;4932861;29;20214;-42
2024/01/12 10:08:06;;;;;;;28.58;12.77;;;;;;;-0.46;100.00;102729.22;4932530;29;20204;-42
2024/01/12 10:10:31;;;;;;;27.83;13.05;;;;;;;-0.45;100.00;102729.28;4930779;29;20601;-43
2024/01/12 10:12:57;;;;;;;27.33;12.55;;;;;;;-0.40;100.00;102713.66;4915458;29;20270;-44
2024/01/12 10:15:23;;;;;;;33.10;12.98;;;;;;;-0.38;100.00;102695.28;4931769;29;20289;-42
2024/01/12 10:17:51;;;;;;;25.30;11.52;;;;;;;-0.37;100.00;102702.34;4932650;29;20256;-40
2024/01/12 10:20:17;;;;;;;31.85;12.90;;;;;;;-0.35;100.00;102687.50;4932702;29;20737;-43
2024/01/12 10:22:43;;;;;;;29.30;12.27;;;;;;;-0.36;100.00;102686.59;4928729;29;20183;-43
2024/01/12 10:25:08;;;;;;;26.75;12.15;;;;;;;-0.35;100.00;102684.84;4930291;29;20581;-43
2024/01/12 10:27:34;;;;;;;26.60;12.30;;;;;;;-0.37;100.00;102698.00;4930499;29;20263;-42
2024/01/12 10:30:00;;;;;;;31.15;11.90;;;;;;;-0.35;100.00;102698.94;4931237;29;20437;-43
2024/01/12 10:32:26;;;;;;;22.85;12.27;;;;;;;-0.37;100.00;102682.19;4931404;29;20198;-42
2024/01/12 10:34:53;;;;;;;26.50;12.40;;;;;;;-0.36;100.00;102680.44;4931865;29;20655;-44
2024/01/12 10:37:20;;;;;;;29.48;13.05;;;;;;;-0.32;100.00;102679.72;4929338;29;20192;-42
2024/01/12 10:39:50;;;;;;;37.17;12.95;;;;;;;-0.34;100.00;102681.41;4909888;29;20198;-44
2024/01/12 10:42:16;;;;;;;23.08;11.80;;;;;;;-0.29;100.00;102690.34;4932472;29;20202;-43
2024/01/12 10:44:44;;;;;;;28.10;12.40;;;;;;;-0.23;100.00;102677.41;4932551;29;20429;-45
2024/01/12 10:47:17;;;;;;;32.05;12.48;;;;;;;-0.23;100.00;102691.47;4931427;29;20183;-43
2024/01/12 10:50:06;;;;;;;23.85;11.35;;;;;;;-0.07;100.00;102694.66;4906801;29;20294;-45
2024/01/12 10:53:10;;;;;;;30.95;12.13;;;;;;;-0.13;100.00;102678.63;4931431;29;20194;-44
2024/01/12 10:55:37;;;;;;;32.03;11.55;;;;;;;-0.15;100.00;102682.94;4909367;29;20677;-42
2024/01/12 10:58:03;;;;;;;34.60;12.57;;;;;;;-0.09;100.00;102676.19;4931201;29;20232;-41
2024/01/12 11:00:32;;;;;;;27.65;11.15;;;;;;;-0.07;100.00;102685.00;4931614;29;20218;-46
2024/01/12 11:03:03;;;;;;;25.38;11.88;;;;;;;-0.10;100.00;102665.56;4930601;29;20175;-43